createdAt,value
2017-02-23T00:00:35.671Z,0
2017-02-23T00:02:51.071Z,0
2017-02-23T00:03:32.774Z,0
2017-02-23T00:04:14.394Z,0
2017-02-23T00:04:56.008Z,0
2017-02-23T00:05:37.814Z,0
2017-02-23T00:07:58.603Z,0
2017-02-23T00:10:13.961Z,0
2017-02-23T00:10:55.701Z,0
2017-02-23T00:11:37.398Z,0
2017-02-23T00:12:19.125Z,0
2017-02-23T00:13:00.876Z,0
2017-02-23T00:13:42.225Z,0
2017-02-23T00:14:23.751Z,0
2017-02-23T00:15:05.392Z,0
2017-02-23T00:15:47.155Z,0
2017-02-23T00:16:28.889Z,0
2017-02-23T00:17:10.622Z,0
2017-02-23T00:17:52.375Z,0
2017-02-23T00:18:34.104Z,0
2017-02-23T00:19:15.843Z,0
2017-02-23T00:19:57.664Z,0
2017-02-23T00:20:39.412Z,0
2017-02-23T00:24:54.836Z,0
2017-02-23T00:25:36.613Z,0
2017-02-23T00:26:18.380Z,0
2017-02-23T00:27:00.096Z,0
2017-02-23T00:27:41.880Z,0
2017-02-23T00:28:23.568Z,0
2017-02-23T00:29:05.314Z,0
2017-02-23T00:29:47.081Z,0
2017-02-23T00:30:28.811Z,0
2017-02-23T00:31:10.496Z,0
2017-02-23T00:31:52.273Z,0
2017-02-23T00:32:34.039Z,0
2017-02-23T00:33:15.853Z,0
2017-02-23T00:33:57.509Z,0
2017-02-23T00:36:18.261Z,0
2017-02-23T00:36:59.938Z,0
2017-02-23T00:37:41.517Z,0
2017-02-23T00:38:23.188Z,0
2017-02-23T00:39:04.904Z,0
2017-02-23T00:39:46.607Z,0
2017-02-23T00:40:28.369Z,0
2017-02-23T00:41:10.129Z,0
2017-02-23T00:41:51.870Z,0
2017-02-23T00:42:33.610Z,0
2017-02-23T00:43:15.391Z,0
2017-02-23T00:43:57.057Z,0
2017-02-23T00:44:38.867Z,0
2017-02-23T00:45:20.614Z,0
2017-02-23T00:46:02.232Z,0
2017-02-23T00:46:43.946Z,0
2017-02-23T00:47:25.552Z,0
2017-02-23T00:51:40.650Z,0
2017-02-23T00:59:55.689Z,0
2017-02-23T01:00:37.188Z,0
2017-02-23T01:02:57.842Z,0
2017-02-23T01:03:39.506Z,0
2017-02-23T01:04:21.304Z,0
2017-02-23T01:05:03.006Z,0
2017-02-23T01:07:23.878Z,0
2017-02-23T01:08:05.228Z,0
2017-02-23T01:08:46.932Z,0
2017-02-23T01:11:02.090Z,0
2017-02-23T01:13:17.604Z,0
2017-02-23T01:13:59.331Z,0
2017-02-23T01:14:41.103Z,0
2017-02-23T01:15:22.836Z,0
2017-02-23T01:16:04.599Z,0
2017-02-23T01:16:46.348Z,0
2017-02-23T01:17:27.963Z,0
2017-02-23T01:18:09.630Z,0
2017-02-23T01:18:51.027Z,0
2017-02-23T01:19:32.670Z,0
2017-02-23T01:22:14.462Z,0
2017-02-23T01:22:56.084Z,0
2017-02-23T01:23:37.549Z,0
2017-02-23T01:25:58.226Z,0
2017-02-23T01:26:39.916Z,0
2017-02-23T01:27:21.636Z,0
2017-02-23T01:28:03.395Z,0
2017-02-23T01:28:45.043Z,0
2017-02-23T01:32:49.892Z,0
2017-02-23T01:33:31.547Z,0
2017-02-23T01:34:13.247Z,0
2017-02-23T01:34:54.961Z,0
2017-02-23T01:35:36.677Z,0
2017-02-23T01:36:18.333Z,0
2017-02-23T01:37:00.090Z,0
2017-02-23T01:37:41.746Z,0
2017-02-23T01:38:23.490Z,0
2017-02-23T01:39:05.212Z,0
2017-02-23T01:41:41.576Z,0
2017-02-23T01:42:23.212Z,0
2017-02-23T01:43:04.905Z,0
2017-02-23T01:43:46.559Z,0
2017-02-23T01:44:28.326Z,0
2017-02-23T01:45:09.681Z,0
2017-02-23T01:47:45.617Z,0
2017-02-23T01:48:27.447Z,0
2017-02-23T01:49:09.163Z,0
2017-02-23T01:49:50.890Z,0
2017-02-23T01:50:32.316Z,0
2017-02-23T01:53:08.209Z,0
2017-02-23T01:53:49.689Z,0
2017-02-23T01:54:31.384Z,0
2017-02-23T01:57:02.529Z,0
2017-02-23T01:57:44.275Z,0
2017-02-23T02:01:59.931Z,0
2017-02-23T02:02:40.722Z,0
2017-02-23T02:03:21.261Z,0
2017-02-23T02:04:01.790Z,0
2017-02-23T02:04:42.320Z,0
2017-02-23T02:05:22.852Z,0
2017-02-23T02:06:03.396Z,0
2017-02-23T02:06:43.932Z,0
2017-02-23T02:07:24.468Z,0
2017-02-23T02:08:04.996Z,0
2017-02-23T02:08:45.525Z,0
2017-02-23T02:09:26.064Z,0
2017-02-23T02:10:06.601Z,0
2017-02-23T02:10:47.130Z,0
2017-02-23T02:11:27.662Z,0
2017-02-23T02:12:08.200Z,0
2017-02-23T02:12:48.725Z,0
2017-02-23T02:13:29.255Z,0
2017-02-23T02:14:09.788Z,0
2017-02-23T02:14:50.323Z,0
2017-02-23T02:15:30.841Z,0
2017-02-23T02:16:11.371Z,0
2017-02-23T02:16:51.903Z,0
2017-02-23T02:17:32.437Z,0
2017-02-23T02:18:12.972Z,0
2017-02-23T02:18:53.500Z,0
2017-02-23T02:19:34.028Z,0
2017-02-23T02:20:14.563Z,0
2017-02-23T02:20:55.108Z,0
2017-02-23T02:21:35.641Z,0
2017-02-23T02:22:16.176Z,0
2017-02-23T02:22:56.703Z,0
2017-02-23T02:23:37.241Z,0
2017-02-23T02:24:17.776Z,0
2017-02-23T02:24:58.310Z,0
2017-02-23T02:25:38.833Z,0
2017-02-23T02:26:19.381Z,0
2017-02-23T02:26:59.935Z,0
2017-02-23T02:27:40.479Z,0
2017-02-23T02:28:21.027Z,0
2017-02-23T02:29:01.537Z,0
2017-02-23T02:29:42.070Z,0
2017-02-23T02:30:22.610Z,0
2017-02-23T02:31:03.146Z,0
2017-02-23T02:31:43.683Z,0
2017-02-23T02:32:24.220Z,0
2017-02-23T02:33:04.747Z,0
2017-02-23T02:33:45.276Z,0
2017-02-23T02:34:25.806Z,0
2017-02-23T02:35:06.339Z,0
2017-02-23T02:35:46.885Z,0
2017-02-23T02:36:27.406Z,0
2017-02-23T02:37:07.942Z,0
2017-02-23T02:37:48.474Z,0
2017-02-23T02:38:29.015Z,0
2017-02-23T02:39:09.557Z,0
2017-02-23T02:39:50.069Z,0
2017-02-23T02:40:30.602Z,0
2017-02-23T02:41:11.141Z,0
2017-02-23T02:41:51.671Z,0
2017-02-23T02:42:32.207Z,0
2017-02-23T02:43:12.750Z,0
2017-02-23T02:43:53.268Z,0
2017-02-23T02:44:33.798Z,0
2017-02-23T02:45:14.328Z,0
2017-02-23T02:45:54.864Z,0
2017-02-23T02:46:35.402Z,0
2017-02-23T02:47:15.945Z,0
2017-02-23T02:47:56.471Z,0
2017-02-23T02:48:37.003Z,0
2017-02-23T02:49:17.580Z,0
2017-02-23T02:49:58.103Z,0
2017-02-23T02:50:38.644Z,0
2017-02-23T02:51:19.181Z,0
2017-02-23T02:51:59.716Z,0
2017-02-23T02:52:40.254Z,0
2017-02-23T02:53:20.787Z,0
2017-02-23T02:54:01.341Z,0
2017-02-23T02:54:41.861Z,0
2017-02-23T02:55:22.399Z,0
2017-02-23T02:56:02.927Z,0
2017-02-23T02:56:43.468Z,0
2017-02-23T02:57:24.001Z,0
2017-02-23T02:58:04.533Z,0
2017-02-23T02:58:45.068Z,0
2017-02-23T02:59:25.603Z,0
2017-02-23T03:00:06.139Z,0
2017-02-23T03:00:46.670Z,0
2017-02-23T03:01:27.208Z,0
2017-02-23T03:02:07.744Z,0
2017-02-23T03:02:48.269Z,0
2017-02-23T03:03:28.804Z,0
2017-02-23T03:04:09.340Z,0
2017-02-23T03:04:49.875Z,0
2017-02-23T03:05:30.410Z,0
2017-02-23T03:06:10.936Z,0
2017-02-23T03:06:51.466Z,0
2017-02-23T03:07:31.998Z,0
2017-02-23T03:08:12.531Z,0
2017-02-23T03:08:53.068Z,0
2017-02-23T03:09:33.579Z,0
2017-02-23T03:10:14.116Z,0
2017-02-23T03:10:54.652Z,0
2017-02-23T03:11:35.209Z,0
2017-02-23T03:12:15.747Z,0
2017-02-23T03:12:56.285Z,0
2017-02-23T03:13:36.850Z,0
2017-02-23T03:14:17.371Z,0
2017-02-23T03:14:57.891Z,0
2017-02-23T03:15:38.430Z,0
2017-02-23T03:16:18.949Z,0
2017-02-23T03:16:59.489Z,0
2017-02-23T03:17:40.025Z,0
2017-02-23T03:18:20.567Z,0
2017-02-23T03:19:01.096Z,0
2017-02-23T03:19:41.625Z,0
2017-02-23T03:20:22.160Z,0
2017-02-23T03:21:02.697Z,0
2017-02-23T03:21:43.232Z,0
2017-02-23T03:22:23.771Z,0
2017-02-23T03:23:04.301Z,0
2017-02-23T03:23:44.836Z,0
2017-02-23T03:24:25.368Z,0
2017-02-23T03:25:05.905Z,0
2017-02-23T03:25:46.441Z,0
2017-02-23T03:26:26.974Z,0
2017-02-23T03:27:07.494Z,0
2017-02-23T03:27:48.030Z,0
2017-02-23T03:28:28.561Z,0
2017-02-23T03:29:09.097Z,0
2017-02-23T03:29:49.636Z,0
2017-02-23T03:30:30.177Z,0
2017-02-23T03:31:10.711Z,0
2017-02-23T03:31:51.245Z,0
2017-02-23T03:32:31.777Z,0
2017-02-23T03:33:12.314Z,0
2017-02-23T03:33:52.849Z,0
2017-02-23T03:34:33.381Z,0
2017-02-23T03:35:13.909Z,0
2017-02-23T03:35:54.440Z,0
2017-02-23T03:36:34.975Z,0
2017-02-23T03:37:15.507Z,0
2017-02-23T03:37:56.048Z,0
2017-02-23T03:38:36.593Z,0
2017-02-23T03:39:17.142Z,0
2017-02-23T03:39:57.667Z,0
2017-02-23T03:40:38.201Z,0
2017-02-23T03:41:18.732Z,0
2017-02-23T03:41:59.260Z,0
2017-02-23T03:42:39.796Z,0
2017-02-23T03:43:20.318Z,0
2017-02-23T03:44:00.852Z,0
2017-02-23T03:44:41.396Z,0
2017-02-23T03:45:21.932Z,0
2017-02-23T03:46:02.465Z,0
2017-02-23T03:46:43.011Z,0
2017-02-23T03:47:23.542Z,0
2017-02-23T03:48:04.073Z,0
2017-02-23T03:48:44.604Z,0
2017-02-23T03:49:25.139Z,0
2017-02-23T03:50:05.675Z,0
2017-02-23T03:50:46.214Z,0
2017-02-23T03:51:26.752Z,0
2017-02-23T03:52:07.282Z,0
2017-02-23T03:52:47.814Z,0
2017-02-23T03:53:28.349Z,0
2017-02-23T03:54:08.883Z,0
2017-02-23T03:54:49.417Z,0
2017-02-23T03:55:29.950Z,0
2017-02-23T03:56:10.483Z,0
2017-02-23T03:56:51.006Z,0
2017-02-23T03:57:31.539Z,0
2017-02-23T03:58:12.080Z,0
2017-02-23T03:58:52.637Z,0
2017-02-23T03:59:33.197Z,0
2017-02-23T04:00:13.702Z,0
2017-02-23T04:00:54.235Z,0
2017-02-23T04:01:34.768Z,0
2017-02-23T04:02:15.301Z,0
2017-02-23T04:02:55.837Z,0
2017-02-23T04:03:36.373Z,0
2017-02-23T04:04:16.914Z,0
2017-02-23T04:04:57.455Z,0
2017-02-23T04:05:37.973Z,0
2017-02-23T04:06:18.504Z,0
2017-02-23T04:06:59.039Z,0
2017-02-23T04:07:39.572Z,0
2017-02-23T04:08:20.109Z,0
2017-02-23T04:09:00.636Z,0
2017-02-23T04:09:41.174Z,0
2017-02-23T04:10:21.705Z,0
2017-02-23T04:11:02.243Z,0
2017-02-23T04:11:42.776Z,0
2017-02-23T04:12:23.310Z,0
2017-02-23T04:13:03.823Z,0
2017-02-23T04:13:44.359Z,0
2017-02-23T04:14:24.892Z,0
2017-02-23T04:15:05.429Z,0
2017-02-23T04:15:45.960Z,0
2017-02-23T04:16:26.482Z,0
2017-02-23T04:17:07.041Z,0
2017-02-23T04:17:47.576Z,0
2017-02-23T04:18:28.119Z,0
2017-02-23T04:19:08.655Z,0
2017-02-23T04:19:49.222Z,0
2017-02-23T04:20:29.756Z,0
2017-02-23T04:21:10.282Z,0
2017-02-23T04:21:50.829Z,0
2017-02-23T04:22:31.350Z,0
2017-02-23T04:23:11.887Z,0
2017-02-23T04:23:52.424Z,0
2017-02-23T04:24:32.950Z,0
2017-02-23T04:25:13.489Z,0
2017-02-23T04:25:54.020Z,0
2017-02-23T04:26:34.553Z,0
2017-02-23T04:27:15.079Z,0
2017-02-23T04:27:55.611Z,0
2017-02-23T04:28:36.152Z,0
2017-02-23T04:29:16.674Z,0
2017-02-23T04:29:57.203Z,0
2017-02-23T04:30:37.731Z,0
2017-02-23T04:31:18.252Z,0
2017-02-23T04:31:58.792Z,0
2017-02-23T04:32:39.333Z,0
2017-02-23T04:33:19.857Z,0
2017-02-23T04:34:00.392Z,0
2017-02-23T04:34:40.910Z,0
2017-02-23T04:35:21.461Z,0
2017-02-23T04:36:01.994Z,0
2017-02-23T04:36:42.521Z,0
2017-02-23T04:37:23.023Z,0
2017-02-23T04:38:03.555Z,0
2017-02-23T04:38:44.099Z,0
2017-02-23T04:39:24.639Z,0
2017-02-23T04:40:05.176Z,0
2017-02-23T04:40:45.702Z,0
2017-02-23T04:41:26.230Z,0
2017-02-23T04:42:06.775Z,0
2017-02-23T04:42:47.317Z,0
2017-02-23T04:43:27.854Z,0
2017-02-23T04:44:08.392Z,0
2017-02-23T04:44:48.918Z,0
2017-02-23T04:45:29.443Z,0
2017-02-23T04:46:09.962Z,0
2017-02-23T04:46:50.507Z,0
2017-02-23T04:47:31.043Z,0
2017-02-23T04:48:11.587Z,0
2017-02-23T04:48:52.108Z,0
2017-02-23T04:49:32.642Z,0
2017-02-23T04:50:13.178Z,0
2017-02-23T04:50:53.712Z,0
2017-02-23T04:51:34.249Z,0
2017-02-23T04:52:14.790Z,0
2017-02-23T04:52:55.344Z,0
2017-02-23T04:53:35.895Z,0
2017-02-23T04:54:16.419Z,0
2017-02-23T04:54:56.953Z,0
2017-02-23T04:55:37.487Z,0
2017-02-23T04:56:18.032Z,0
2017-02-23T04:56:58.575Z,0
2017-02-23T04:57:39.109Z,0
2017-02-23T04:58:19.665Z,0
2017-02-23T04:59:00.175Z,0
2017-02-23T04:59:40.710Z,0
2017-02-23T05:00:21.244Z,0
2017-02-23T05:01:01.771Z,0
2017-02-23T05:01:42.361Z,0
2017-02-23T05:02:22.897Z,0
2017-02-23T05:03:03.523Z,0
2017-02-23T05:03:44.006Z,0
2017-02-23T05:04:24.529Z,0
2017-02-23T05:05:05.098Z,0
2017-02-23T05:05:45.623Z,0
2017-02-23T05:06:26.161Z,0
2017-02-23T05:07:06.714Z,0
2017-02-23T05:07:47.266Z,0
2017-02-23T05:08:27.813Z,0
2017-02-23T05:09:08.354Z,0
2017-02-23T05:09:48.890Z,0
2017-02-23T05:10:29.424Z,0
2017-02-23T05:11:09.946Z,0
2017-02-23T05:11:50.473Z,0
2017-02-23T05:12:31.008Z,0
2017-02-23T05:13:11.535Z,0
2017-02-23T05:13:52.066Z,0
2017-02-23T05:14:32.605Z,0
2017-02-23T05:15:13.139Z,0
2017-02-23T05:15:53.691Z,0
2017-02-23T05:16:34.231Z,0
2017-02-23T05:17:14.762Z,0
2017-02-23T05:17:55.289Z,0
2017-02-23T05:18:35.806Z,0
2017-02-23T05:19:16.336Z,0
2017-02-23T05:19:56.879Z,0
2017-02-23T05:20:37.429Z,0
2017-02-23T05:21:17.988Z,0
2017-02-23T05:21:58.528Z,0
2017-02-23T05:22:39.074Z,0
2017-02-23T05:23:19.620Z,0
2017-02-23T05:24:00.158Z,0
2017-02-23T05:24:40.689Z,0
2017-02-23T05:25:21.223Z,0
2017-02-23T05:26:01.763Z,0
2017-02-23T05:26:42.293Z,0
2017-02-23T05:27:22.989Z,0
2017-02-23T05:28:03.552Z,0
2017-02-23T05:28:44.092Z,0
2017-02-23T05:29:24.633Z,0
2017-02-23T05:30:05.169Z,0
2017-02-23T05:30:45.726Z,0
2017-02-23T05:31:26.262Z,0
2017-02-23T05:32:06.793Z,0
2017-02-23T05:32:47.339Z,0
2017-02-23T05:33:27.858Z,0
2017-02-23T05:34:08.396Z,0
2017-02-23T05:34:48.927Z,0
2017-02-23T05:35:29.473Z,0
2017-02-23T05:36:09.984Z,0
2017-02-23T05:36:50.546Z,0
2017-02-23T05:37:31.059Z,0
2017-02-23T05:38:11.576Z,0
2017-02-23T05:38:52.104Z,0
2017-02-23T05:39:32.646Z,0
2017-02-23T05:40:13.136Z,0
2017-02-23T05:40:53.658Z,0
2017-02-23T05:41:34.189Z,0
2017-02-23T05:42:14.734Z,0
2017-02-23T05:42:55.262Z,0
2017-02-23T05:45:24.953Z,0
2017-02-23T05:46:05.464Z,0
2017-02-23T05:46:45.982Z,0
2017-02-23T05:47:26.505Z,0
2017-02-23T05:48:07.034Z,0
2017-02-23T05:48:47.658Z,0
2017-02-23T05:49:28.087Z,0
2017-02-23T05:50:08.626Z,0
2017-02-23T05:50:49.151Z,0
2017-02-23T05:51:29.675Z,0
2017-02-23T05:52:10.217Z,0
2017-02-23T05:52:50.748Z,0
2017-02-23T05:53:31.278Z,0
2017-02-23T05:54:11.789Z,0
2017-02-23T05:54:52.317Z,0
2017-02-23T05:55:32.841Z,0
2017-02-23T05:56:13.358Z,0
2017-02-23T05:56:53.895Z,0
2017-02-23T05:57:34.428Z,0
2017-02-23T05:58:14.953Z,0
2017-02-23T05:58:55.472Z,0
2017-02-23T05:59:35.967Z,0
2017-02-23T06:00:16.498Z,0
2017-02-23T06:00:57.036Z,0
2017-02-23T06:01:37.567Z,0
2017-02-23T06:02:18.470Z,0
2017-02-23T06:02:59.016Z,0
2017-02-23T06:03:39.581Z,0
2017-02-23T06:04:20.112Z,0
2017-02-23T06:05:00.633Z,0
2017-02-23T06:05:41.156Z,0
2017-02-23T06:06:21.697Z,0
2017-02-23T06:07:02.243Z,0
2017-02-23T06:07:42.788Z,0
2017-02-23T06:08:23.546Z,0
2017-02-23T06:09:04.074Z,0
2017-02-23T06:09:44.548Z,0
2017-02-23T06:10:25.249Z,0
2017-02-23T06:11:05.783Z,0
2017-02-23T06:11:46.323Z,0
2017-02-23T06:12:26.783Z,0
2017-02-23T06:13:07.340Z,0
2017-02-23T06:13:47.882Z,0
2017-02-23T06:14:28.424Z,0
2017-02-23T06:15:09.062Z,0
2017-02-23T06:15:49.649Z,0
2017-02-23T06:16:30.221Z,0
2017-02-23T06:17:10.751Z,0
2017-02-23T06:17:51.290Z,0
2017-02-23T06:18:31.795Z,0
2017-02-23T06:19:12.284Z,0
2017-02-23T06:19:52.814Z,0
2017-02-23T06:20:33.344Z,0
2017-02-23T06:21:13.883Z,0
2017-02-23T06:21:54.412Z,0
2017-02-23T06:22:34.957Z,0
2017-02-23T06:23:15.498Z,0
2017-02-23T06:23:56.024Z,0
2017-02-23T06:24:36.565Z,0
2017-02-23T06:25:17.107Z,0
2017-02-23T06:25:57.643Z,0
2017-02-23T06:26:38.166Z,0
2017-02-23T06:27:18.696Z,0
2017-02-23T06:27:59.215Z,0
2017-02-23T06:28:39.746Z,0
2017-02-23T06:29:20.269Z,0
2017-02-23T06:30:00.801Z,0
2017-02-23T06:30:41.339Z,0
2017-02-23T06:31:21.874Z,0
2017-02-23T06:32:02.403Z,0
2017-02-23T06:32:42.920Z,0
2017-02-23T06:33:23.460Z,0
2017-02-23T06:34:04.001Z,0
2017-02-23T06:34:44.532Z,0
2017-02-23T06:35:25.066Z,0
2017-02-23T06:36:05.601Z,0
2017-02-23T06:36:46.167Z,0
2017-02-23T06:37:26.682Z,0
2017-02-23T06:38:07.195Z,0
2017-02-23T06:38:47.720Z,0
2017-02-23T06:39:28.239Z,0
2017-02-23T06:40:08.805Z,0
2017-02-23T06:40:49.304Z,0
2017-02-23T06:41:29.834Z,0
2017-02-23T06:42:10.363Z,0
2017-02-23T06:42:50.921Z,0
2017-02-23T06:43:31.451Z,0
2017-02-23T06:44:11.977Z,0
2017-02-23T06:44:52.534Z,0
2017-02-23T06:45:33.071Z,0
2017-02-23T06:46:13.608Z,0
2017-02-23T06:46:54.144Z,0
2017-02-23T06:47:34.692Z,0
2017-02-23T06:48:15.229Z,0
2017-02-23T06:48:55.758Z,0
2017-02-23T06:49:36.322Z,0
2017-02-23T06:50:16.815Z,0
2017-02-23T06:50:57.351Z,0
2017-02-23T06:51:37.890Z,0
2017-02-23T06:52:18.428Z,0
2017-02-23T06:52:59.180Z,0
2017-02-23T06:53:39.815Z,0
2017-02-23T06:54:20.356Z,0
2017-02-23T06:55:00.881Z,0
2017-02-23T06:55:41.408Z,0
2017-02-23T06:56:21.950Z,0
2017-02-23T06:57:02.467Z,0
2017-02-23T06:57:43.003Z,5
2017-02-23T06:58:23.512Z,5
2017-02-23T06:59:04.045Z,5
2017-02-23T06:59:44.586Z,5
2017-02-23T07:00:25.112Z,0
2017-02-23T07:01:05.637Z,5
2017-02-23T07:01:46.175Z,0
2017-02-23T07:02:26.709Z,0
2017-02-23T07:03:07.309Z,0
2017-02-23T07:03:47.851Z,0
2017-02-23T07:04:28.377Z,5
2017-02-23T07:05:08.915Z,5
2017-02-23T07:05:49.455Z,5
2017-02-23T07:06:29.994Z,5
2017-02-23T07:07:10.527Z,5
2017-02-23T07:07:51.076Z,5
2017-02-23T07:08:31.600Z,5
2017-02-23T07:09:12.131Z,5
2017-02-23T07:09:52.656Z,5
2017-02-23T07:10:33.201Z,5
2017-02-23T07:11:13.732Z,5
2017-02-23T07:11:54.271Z,5
2017-02-23T07:12:34.807Z,5
2017-02-23T07:13:15.392Z,5
2017-02-23T07:13:55.931Z,5
2017-02-23T07:14:36.466Z,5
2017-02-23T07:15:17.000Z,5
2017-02-23T07:15:57.538Z,5
2017-02-23T07:16:38.075Z,5
2017-02-23T07:17:18.616Z,5
2017-02-23T07:17:59.152Z,5
2017-02-23T07:18:39.677Z,5
2017-02-23T07:19:20.204Z,5
2017-02-23T07:20:00.741Z,5
2017-02-23T07:20:41.278Z,5
2017-02-23T07:21:21.821Z,5
2017-02-23T07:22:02.356Z,5
2017-02-23T07:22:42.888Z,5
2017-02-23T07:23:23.414Z,5
2017-02-23T07:24:03.951Z,5
2017-02-23T07:24:44.487Z,5
2017-02-23T07:25:25.021Z,5
2017-02-23T07:26:05.560Z,10
2017-02-23T07:26:48.078Z,5
2017-02-23T07:27:28.627Z,5
2017-02-23T07:28:09.159Z,5
2017-02-23T07:28:49.698Z,5
2017-02-23T07:29:30.240Z,10
2017-02-23T07:30:10.768Z,10
2017-02-23T07:30:51.300Z,10
2017-02-23T07:31:31.832Z,10
2017-02-23T07:32:12.376Z,10
2017-02-23T07:32:52.912Z,10
2017-02-23T07:33:33.441Z,10
2017-02-23T07:34:13.978Z,10
2017-02-23T07:34:54.512Z,10
2017-02-23T07:35:35.046Z,10
2017-02-23T07:36:15.581Z,10
2017-02-23T07:36:56.116Z,10
2017-02-23T07:37:36.648Z,10
2017-02-23T07:38:17.194Z,10
2017-02-23T07:38:57.727Z,10
2017-02-23T07:39:38.255Z,10
2017-02-23T07:40:18.785Z,10
2017-02-23T07:40:59.318Z,10
2017-02-23T07:41:39.856Z,10
2017-02-23T07:42:20.403Z,10
2017-02-23T07:43:00.945Z,10
2017-02-23T07:43:41.461Z,10
2017-02-23T07:44:21.994Z,10
2017-02-23T07:45:02.524Z,10
2017-02-23T07:45:43.058Z,10
2017-02-23T07:46:23.601Z,10
2017-02-23T07:47:04.128Z,10
2017-02-23T07:47:44.663Z,10
2017-02-23T07:48:25.200Z,10
2017-02-23T07:49:05.733Z,15
2017-02-23T07:49:46.274Z,15
2017-02-23T07:50:26.810Z,15
2017-02-23T07:51:07.358Z,15
2017-02-23T07:51:47.881Z,15
2017-02-23T07:52:28.416Z,10
2017-02-23T07:53:08.950Z,15
2017-02-23T07:53:49.492Z,15
2017-02-23T07:54:30.028Z,15
2017-02-23T07:55:10.557Z,10
2017-02-23T07:55:51.092Z,10
2017-02-23T07:56:31.623Z,15
2017-02-23T07:57:12.164Z,15
2017-02-23T07:57:52.687Z,15
2017-02-23T07:58:33.230Z,10
2017-02-23T07:59:13.768Z,10
2017-02-23T07:59:54.309Z,15
2017-02-23T08:00:34.833Z,15
2017-02-23T08:01:15.366Z,15
2017-02-23T08:01:55.891Z,15
2017-02-23T08:02:36.431Z,15
2017-02-23T08:03:16.968Z,15
2017-02-23T08:03:57.493Z,15
2017-02-23T08:04:38.030Z,15
2017-02-23T08:05:18.570Z,10
2017-02-23T08:05:59.106Z,10
2017-02-23T08:06:39.647Z,10
2017-02-23T08:07:20.184Z,10
2017-02-23T08:08:00.721Z,10
2017-02-23T08:08:41.248Z,10
2017-02-23T08:09:21.774Z,10
2017-02-23T08:10:02.298Z,10
2017-02-23T08:10:42.830Z,10
2017-02-23T08:11:23.375Z,10
2017-02-23T08:12:03.910Z,10
2017-02-23T08:12:44.438Z,10
2017-02-23T08:13:24.974Z,10
2017-02-23T08:14:05.511Z,10
2017-02-23T08:14:46.055Z,10
2017-02-23T08:15:26.591Z,10
2017-02-23T08:16:07.133Z,10
2017-02-23T08:16:47.662Z,10
2017-02-23T08:17:28.195Z,10
2017-02-23T08:18:08.729Z,10
2017-02-23T08:18:49.265Z,10
2017-02-23T08:19:29.796Z,10
2017-02-23T08:20:10.333Z,10
2017-02-23T08:20:50.876Z,10
2017-02-23T08:21:31.412Z,10
2017-02-23T08:22:11.947Z,10
2017-02-23T08:22:52.484Z,10
2017-02-23T08:23:33.019Z,10
2017-02-23T08:24:13.550Z,10
2017-02-23T08:24:54.096Z,10
2017-02-23T08:25:34.631Z,10
2017-02-23T08:26:15.165Z,15
2017-02-23T08:26:55.700Z,15
2017-02-23T08:27:36.239Z,15
2017-02-23T08:28:16.776Z,15
2017-02-23T08:28:57.315Z,15
2017-02-23T08:29:37.834Z,15
2017-02-23T08:30:18.360Z,15
2017-02-23T08:30:58.888Z,15
2017-02-23T08:31:39.426Z,15
2017-02-23T08:32:19.967Z,15
2017-02-23T08:33:00.523Z,15
2017-02-23T08:33:41.055Z,15
2017-02-23T08:34:21.596Z,15
2017-02-23T08:35:02.138Z,15
2017-02-23T08:35:42.674Z,15
2017-02-23T08:36:23.217Z,15
2017-02-23T08:37:03.790Z,15
2017-02-23T08:37:44.323Z,15
2017-02-23T08:38:24.857Z,15
2017-02-23T08:39:05.397Z,20
2017-02-23T08:39:45.931Z,15
2017-02-23T08:40:26.463Z,15
2017-02-23T08:41:07.005Z,15
2017-02-23T08:41:47.545Z,15
2017-02-23T08:42:28.080Z,15
2017-02-23T08:43:08.613Z,15
2017-02-23T08:43:49.149Z,20
2017-02-23T08:44:29.693Z,20
2017-02-23T08:45:10.230Z,20
2017-02-23T08:45:50.767Z,20
2017-02-23T08:46:31.307Z,20
2017-02-23T08:47:11.840Z,20
2017-02-23T08:47:52.375Z,20
2017-02-23T08:48:32.898Z,15
2017-02-23T08:49:13.432Z,20
2017-02-23T08:49:53.964Z,20
2017-02-23T08:50:34.513Z,20
2017-02-23T08:51:15.060Z,15
2017-02-23T08:51:55.581Z,20
2017-02-23T08:52:36.119Z,20
2017-02-23T08:53:16.658Z,20
2017-02-23T08:53:57.181Z,20
2017-02-23T08:54:37.716Z,20
2017-02-23T08:55:18.255Z,20
2017-02-23T08:55:58.786Z,20
2017-02-23T08:56:39.316Z,20
2017-02-23T08:57:19.851Z,20
2017-02-23T08:58:00.410Z,20
2017-02-23T08:58:40.939Z,15
2017-02-23T08:59:21.465Z,15
2017-02-23T09:00:01.996Z,15
2017-02-23T09:00:42.527Z,15
2017-02-23T09:01:23.065Z,15
2017-02-23T09:02:03.585Z,20
2017-02-23T09:02:44.120Z,20
2017-02-23T09:03:24.679Z,20
2017-02-23T09:04:05.191Z,20
2017-02-23T09:04:45.730Z,20
2017-02-23T09:05:26.257Z,20
2017-02-23T09:06:06.791Z,20
2017-02-23T09:06:47.326Z,20
2017-02-23T09:07:27.867Z,25
2017-02-23T09:08:08.397Z,25
2017-02-23T09:08:48.925Z,20
2017-02-23T09:09:29.460Z,25
2017-02-23T09:10:09.998Z,25
2017-02-23T09:10:50.535Z,25
2017-02-23T09:11:31.075Z,25
2017-02-23T09:12:11.615Z,25
2017-02-23T09:12:52.149Z,25
2017-02-23T09:13:32.679Z,25
2017-02-23T09:14:13.214Z,25
2017-02-23T09:14:53.742Z,25
2017-02-23T09:15:34.293Z,25
2017-02-23T09:16:14.835Z,25
2017-02-23T09:16:55.369Z,20
2017-02-23T09:17:35.907Z,20
2017-02-23T09:18:16.439Z,20
2017-02-23T09:18:56.975Z,20
2017-02-23T09:19:37.515Z,20
2017-02-23T09:20:18.043Z,20
2017-02-23T09:20:58.576Z,20
2017-02-23T09:21:39.102Z,20
2017-02-23T09:22:19.626Z,25
2017-02-23T09:23:00.156Z,30
2017-02-23T09:23:40.698Z,30
2017-02-23T09:24:21.228Z,30
2017-02-23T09:25:01.773Z,30
2017-02-23T09:25:42.301Z,30
2017-02-23T09:26:22.832Z,30
2017-02-23T09:27:03.372Z,30
2017-02-23T09:27:43.910Z,30
2017-02-23T09:28:24.445Z,30
2017-02-23T09:29:04.985Z,35
2017-02-23T09:29:45.515Z,40
2017-02-23T09:30:26.048Z,40
2017-02-23T09:31:06.585Z,40
2017-02-23T09:31:47.118Z,40
2017-02-23T09:32:27.654Z,35
2017-02-23T09:33:08.193Z,30
2017-02-23T09:33:48.733Z,25
2017-02-23T09:34:29.261Z,25
2017-02-23T09:35:09.791Z,20
2017-02-23T09:35:50.330Z,20
2017-02-23T09:36:30.856Z,25
2017-02-23T09:37:11.401Z,30
2017-02-23T09:37:51.940Z,30
2017-02-23T09:38:32.462Z,20
2017-02-23T09:39:12.989Z,20
2017-02-23T09:39:53.523Z,15
2017-02-23T09:40:34.056Z,15
2017-02-23T09:41:14.597Z,20
2017-02-23T09:41:55.123Z,20
2017-02-23T09:42:35.656Z,20
2017-02-23T09:43:16.192Z,20
2017-02-23T09:43:56.725Z,20
2017-02-23T09:44:37.260Z,20
2017-02-23T09:45:17.798Z,25
2017-02-23T09:45:58.337Z,25
2017-02-23T09:46:38.857Z,25
2017-02-23T09:47:19.419Z,30
2017-02-23T09:47:59.925Z,35
2017-02-23T09:48:40.459Z,35
2017-02-23T09:49:21.000Z,35
2017-02-23T09:50:01.529Z,30
2017-02-23T09:50:42.062Z,30
2017-02-23T09:51:22.596Z,30
2017-02-23T09:52:03.135Z,25
2017-02-23T09:52:43.677Z,30
2017-02-23T09:53:24.211Z,30
2017-02-23T09:54:04.801Z,30
2017-02-23T09:54:45.332Z,35
2017-02-23T09:55:25.866Z,35
2017-02-23T09:56:06.405Z,35
2017-02-23T09:56:46.948Z,40
2017-02-23T09:57:27.489Z,35
2017-02-23T09:58:08.014Z,40
2017-02-23T09:58:48.549Z,40
2017-02-23T09:59:29.083Z,40
2017-02-23T10:00:09.621Z,40
2017-02-23T10:00:50.156Z,40
2017-02-23T10:01:30.735Z,45
2017-02-23T10:02:11.320Z,45
2017-02-23T10:02:51.852Z,35
2017-02-23T10:03:32.388Z,35
2017-02-23T10:04:12.925Z,35
2017-02-23T10:04:53.460Z,35
2017-02-23T10:05:33.995Z,40
2017-02-23T10:06:14.532Z,45
2017-02-23T10:06:55.070Z,45
2017-02-23T10:07:35.606Z,50
2017-02-23T10:08:16.144Z,40
2017-02-23T10:08:56.679Z,35
2017-02-23T10:09:37.243Z,40
2017-02-23T10:10:17.780Z,55
2017-02-23T10:10:58.333Z,45
2017-02-23T10:11:38.995Z,45
2017-02-23T10:12:19.515Z,55
2017-02-23T10:13:00.056Z,60
2017-02-23T10:13:40.619Z,60
2017-02-23T10:14:21.216Z,65
2017-02-23T10:15:01.795Z,55
2017-02-23T10:15:42.326Z,55
2017-02-23T10:16:22.863Z,60
2017-02-23T10:17:03.407Z,70
2017-02-23T10:17:43.944Z,75
2017-02-23T10:18:24.483Z,60
2017-02-23T10:19:05.083Z,60
2017-02-23T10:19:45.611Z,55
2017-02-23T10:20:26.171Z,55
2017-02-23T10:21:06.817Z,55
2017-02-23T10:21:47.402Z,55
2017-02-23T10:22:27.968Z,55
2017-02-23T10:23:08.512Z,50
2017-02-23T10:23:49.044Z,55
2017-02-23T10:24:29.587Z,60
2017-02-23T10:25:10.149Z,65
2017-02-23T10:25:50.932Z,60
2017-02-23T10:26:31.558Z,50
2017-02-23T10:27:12.167Z,45
2017-02-23T10:27:52.702Z,50
2017-02-23T10:28:33.237Z,55
2017-02-23T10:29:13.922Z,55
2017-02-23T10:29:54.578Z,60
2017-02-23T10:30:35.127Z,65
2017-02-23T10:31:15.818Z,60
2017-02-23T10:31:56.371Z,50
2017-02-23T10:32:36.970Z,50
2017-02-23T10:33:17.513Z,50
2017-02-23T10:33:58.035Z,60
2017-02-23T10:34:38.577Z,55
2017-02-23T10:35:19.151Z,50
2017-02-23T10:35:59.679Z,55
2017-02-23T10:36:40.211Z,55
2017-02-23T10:37:20.887Z,55
2017-02-23T10:38:01.434Z,50
2017-02-23T10:38:41.999Z,50
2017-02-23T10:39:22.520Z,50
2017-02-23T10:40:03.058Z,50
2017-02-23T10:40:43.689Z,50
2017-02-23T10:41:24.453Z,60
2017-02-23T10:42:05.168Z,55